Time;durP1;ratioP1;P1;durP2;ratioP2;P2;SDS_P1;SDS_P2;PMS_P1;PMS_P2;Temp;Humidity;BMP_temperature;BMP_pressure;BME280_temperature;BME280_humidity;BME280_pressure;Samples;Min_cycle;Max_cycle;Signal;HPM_P1;HPM_P2
2022/10/15 00:01:31;;;;;;;13.15;7.35;;;;;;;;;;5008456;28;20737;-69
2022/10/15 00:03:59;;;;;;;16.23;8.45;;;;;;;;;;5001629;28;20104;-70
2022/10/15 00:06:25;;;;;;;22.40;7.57;;;;;;;;;;5006145;28;20042;-68
2022/10/15 00:08:51;;;;;;;13.25;7.75;;;;;;;;;;5009368;28;20370;-69
2022/10/15 00:11:22;;;;;;;13.68;7.85;;;;;;;;;;5009469;28;20053;-69
2022/10/15 00:13:49;;;;;;;12.48;8.02;;;;;;;;;;5002794;28;20458;-68
2022/10/15 00:16:18;;;;;;;13.13;7.57;;;;;;;;;;5007052;28;20684;-67
2022/10/15 00:18:44;;;;;;;14.93;7.50;;;;;;;;;;5008770;28;20042;-68
2022/10/15 00:21:13;;;;;;;18.52;7.57;;;;;;;;;;5008016;28;20050;-68
2022/10/15 00:23:39;;;;;;;12.63;6.88;;;;;;;;;;5006593;28;20384;-68
2022/10/15 00:26:14;;;;;;;17.60;7.60;;;;;;;;;;5000760;28;20049;-67
2022/10/15 00:28:43;;;;;;;11.93;7.43;;;;;;;;;;5002546;28;20525;-68
2022/10/15 00:31:12;;;;;;;12.35;7.50;;;;;;;;;;5001373;28;20042;-67
2022/10/15 00:33:39;;;;;;;9.68;6.65;;;;;;;;;;5003896;28;20053;-67
2022/10/15 00:36:10;;;;;;;14.48;7.38;;;;;;;;;;5008704;28;20055;-68
2022/10/15 00:38:36;;;;;;;10.57;6.63;;;;;;;;;;4996046;28;20060;-69
2022/10/15 00:41:03;;;;;;;9.88;6.25;;;;;;;;;;5006154;28;20476;-69
2022/10/15 00:43:35;;;;;;;11.80;5.68;;;;;;;;;;5007641;28;20053;-68
2022/10/15 00:46:02;;;;;;;15.65;6.00;;;;;;;;;;5009038;28;20042;-70
2022/10/15 00:48:30;;;;;;;13.43;6.20;;;;;;;;;;5007935;28;20069;-69
2022/10/15 00:50:59;;;;;;;11.00;5.70;;;;;;;;;;4996129;28;20053;-67
2022/10/15 00:53:25;;;;;;;12.43;6.07;;;;;;;;;;5008938;28;20046;-67
2022/10/15 00:55:51;;;;;;;11.02;5.68;;;;;;;;;;4996467;28;20097;-67
2022/10/15 00:58:27;;;;;;;11.95;6.28;;;;;;;;;;5007780;28;20376;-68
2022/10/15 01:00:56;;;;;;;11.77;6.22;;;;;;;;;;4994123;28;20043;-67
2022/10/15 01:03:22;;;;;;;12.13;6.15;;;;;;;;;;5000821;28;20069;-68
2022/10/15 01:05:50;;;;;;;13.52;6.40;;;;;;;;;;5006325;28;20042;-68
2022/10/15 01:08:17;;;;;;;8.73;5.60;;;;;;;;;;4988503;28;20050;-67
2022/10/15 01:11:04;;;;;;;10.98;6.38;;;;;;;;;;4999366;28;20045;-69
2022/10/15 01:13:42;;;;;;;11.57;6.00;;;;;;;;;;5001113;28;20039;-69
2022/10/15 01:16:43;;;;;;;12.35;5.82;;;;;;;;;;5001918;28;20050;-66
2022/10/15 01:19:45;;;;;;;12.68;5.70;;;;;;;;;;5012277;28;20046;-68
2022/10/15 01:22:28;;;;;;;9.80;5.72;;;;;;;;;;4995916;28;20057;-66
2022/10/15 01:25:13;;;;;;;11.18;6.03;;;;;;;;;;5007918;28;20638;-67
2022/10/15 01:27:45;;;;;;;13.80;5.80;;;;;;;;;;4988962;28;20425;-67
2022/10/15 01:30:22;;;;;;;13.82;5.90;;;;;;;;;;5004391;28;20467;-67
2022/10/15 01:32:54;;;;;;;12.68;5.38;;;;;;;;;;5013150;28;20050;-69
2022/10/15 01:35:31;;;;;;;12.07;5.32;;;;;;;;;;5013779;28;20053;-69
2022/10/15 01:37:57;;;;;;;16.08;6.50;;;;;;;;;;5015222;28;20053;-69
2022/10/15 01:40:30;;;;;;;16.70;6.10;;;;;;;;;;5002710;28;20066;-68
2022/10/15 01:43:10;;;;;;;9.85;5.93;;;;;;;;;;5010728;28;20045;-67
2022/10/15 01:45:42;;;;;;;8.73;5.57;;;;;;;;;;5010551;28;20058;-68
2022/10/15 01:48:10;;;;;;;16.13;5.63;;;;;;;;;;4998646;28;20065;-69
2022/10/15 01:50:45;;;;;;;9.00;5.32;;;;;;;;;;4999692;28;20496;-68
2022/10/15 01:53:16;;;;;;;12.90;5.68;;;;;;;;;;4997857;28;20160;-68
2022/10/15 01:55:44;;;;;;;12.88;5.75;;;;;;;;;;5010798;28;20053;-68
2022/10/15 01:58:11;;;;;;;10.45;6.28;;;;;;;;;;5014608;28;20042;-69
2022/10/15 02:00:40;;;;;;;10.85;6.07;;;;;;;;;;5000965;28;20043;-69
2022/10/15 02:03:06;;;;;;;12.18;5.72;;;;;;;;;;5007616;28;20302;-68
2022/10/15 02:05:37;;;;;;;12.40;6.18;;;;;;;;;;5009801;28;20094;-71
2022/10/15 02:08:21;;;;;;;12.45;6.22;;;;;;;;;;5011517;28;20576;-67
2022/10/15 02:11:03;;;;;;;12.40;6.70;;;;;;;;;;5009938;28;20514;-67
2022/10/15 02:13:38;;;;;;;9.73;6.00;;;;;;;;;;5009693;28;20058;-68
2022/10/15 02:16:22;;;;;;;12.27;6.43;;;;;;;;;;5010473;28;20065;-67
2022/10/15 02:18:57;;;;;;;10.50;6.28;;;;;;;;;;5009581;28;20495;-70
2022/10/15 02:21:50;;;;;;;13.25;7.30;;;;;;;;;;5008991;28;20048;-67
2022/10/15 02:24:21;;;;;;;14.38;6.68;;;;;;;;;;5010732;28;20512;-67
2022/10/15 02:26:48;;;;;;;9.32;6.63;;;;;;;;;;5007387;28;20464;-67
2022/10/15 02:29:20;;;;;;;13.82;6.50;;;;;;;;;;5009758;28;20046;-67
2022/10/15 02:31:49;;;;;;;9.45;6.00;;;;;;;;;;4995404;28;20046;-68
2022/10/15 02:34:18;;;;;;;10.77;6.40;;;;;;;;;;5010439;28;20034;-68
2022/10/15 02:36:45;;;;;;;11.15;6.47;;;;;;;;;;5011126;28;20152;-67
2022/10/15 02:39:17;;;;;;;9.13;5.68;;;;;;;;;;5011760;28;20492;-67
2022/10/15 02:41:44;;;;;;;14.20;6.32;;;;;;;;;;4996001;28;20050;-67
2022/10/15 02:44:10;;;;;;;14.15;5.38;;;;;;;;;;5005784;28;20133;-67
2022/10/15 02:46:36;;;;;;;8.10;5.63;;;;;;;;;;5008158;28;20045;-70
2022/10/15 02:49:02;;;;;;;19.25;6.00;;;;;;;;;;5011056;28;20053;-66
2022/10/15 02:51:31;;;;;;;20.15;6.28;;;;;;;;;;5000206;28;20136;-69
2022/10/15 02:53:57;;;;;;;12.10;5.28;;;;;;;;;;5010051;28;20093;-69
2022/10/15 02:56:23;;;;;;;10.52;5.60;;;;;;;;;;5011218;28;20608;-67
2022/10/15 02:58:49;;;;;;;16.30;6.07;;;;;;;;;;5012556;28;20060;-67
2022/10/15 03:01:15;;;;;;;11.90;6.20;;;;;;;;;;5009413;28;20572;-67
2022/10/15 03:03:41;;;;;;;13.43;5.30;;;;;;;;;;5009057;28;20042;-67
2022/10/15 03:06:06;;;;;;;10.63;5.45;;;;;;;;;;5011133;28;20517;-67
2022/10/15 03:08:33;;;;;;;9.40;4.97;;;;;;;;;;5010637;28;20050;-67
2022/10/15 03:11:00;;;;;;;10.52;5.38;;;;;;;;;;5008763;28;20046;-68
2022/10/15 03:13:26;;;;;;;12.32;5.28;;;;;;;;;;5009374;28;20046;-67
2022/10/15 03:15:52;;;;;;;11.93;5.18;;;;;;;;;;5009202;28;20049;-65
2022/10/15 03:18:18;;;;;;;9.85;5.50;;;;;;;;;;5008717;28;20099;-67
2022/10/15 03:20:46;;;;;;;9.07;5.20;;;;;;;;;;5003356;28;20042;-65
2022/10/15 03:23:12;;;;;;;10.82;4.93;;;;;;;;;;5010126;28;20994;-68
2022/10/15 03:25:37;;;;;;;13.80;4.85;;;;;;;;;;5010047;28;20045;-66
2022/10/15 03:28:03;;;;;;;10.23;5.10;;;;;;;;;;5005441;28;20038;-68
2022/10/15 03:30:29;;;;;;;9.65;4.97;;;;;;;;;;5008160;28;20487;-67
2022/10/15 03:32:55;;;;;;;7.07;4.35;;;;;;;;;;5009608;28;20087;-66
2022/10/15 03:35:21;;;;;;;13.40;5.25;;;;;;;;;;5010456;28;20275;-66
2022/10/15 03:37:47;;;;;;;12.10;4.78;;;;;;;;;;5009555;28;20111;-65
2022/10/15 03:40:13;;;;;;;10.13;4.88;;;;;;;;;;5006151;28;20039;-68
2022/10/15 03:42:38;;;;;;;11.27;4.63;;;;;;;;;;5008864;28;20566;-67
2022/10/15 03:45:05;;;;;;;9.43;4.70;;;;;;;;;;5003285;28;20069;-66
2022/10/15 03:47:31;;;;;;;7.65;4.95;;;;;;;;;;5006838;28;20053;-68
2022/10/15 03:49:57;;;;;;;10.27;4.78;;;;;;;;;;5005385;28;20439;-69
2022/10/15 03:52:22;;;;;;;7.53;4.35;;;;;;;;;;5007848;28;20054;-67
2022/10/15 03:54:48;;;;;;;12.02;4.90;;;;;;;;;;5010886;28;20526;-67
2022/10/15 03:57:14;;;;;;;8.07;4.72;;;;;;;;;;5005204;28;20050;-67
2022/10/15 03:59:40;;;;;;;10.32;4.90;;;;;;;;;;5003861;28;20041;-69
2022/10/15 04:02:06;;;;;;;9.48;4.63;;;;;;;;;;4999006;28;20053;-67
2022/10/15 04:04:31;;;;;;;14.45;4.18;;;;;;;;;;5004939;28;20084;-68
2022/10/15 04:06:57;;;;;;;9.55;4.30;;;;;;;;;;5008138;28;20046;-69
2022/10/15 04:09:23;;;;;;;10.20;4.65;;;;;;;;;;5005416;28;20038;-68
2022/10/15 04:11:49;;;;;;;10.35;4.28;;;;;;;;;;4999652;28;20050;-69
2022/10/15 04:14:15;;;;;;;7.75;3.72;;;;;;;;;;4997212;28;20121;-67
2022/10/15 04:16:41;;;;;;;10.32;3.83;;;;;;;;;;5008933;28;20475;-68
2022/10/15 04:19:07;;;;;;;7.95;3.80;;;;;;;;;;5005681;28;20046;-68
2022/10/15 04:21:33;;;;;;;8.07;4.05;;;;;;;;;;5005791;28;20056;-69
2022/10/15 04:23:59;;;;;;;9.45;4.18;;;;;;;;;;5007993;28;20092;-68
2022/10/15 04:26:24;;;;;;;7.88;3.90;;;;;;;;;;5009434;28;20504;-69
2022/10/15 04:28:50;;;;;;;5.55;3.58;;;;;;;;;;5003498;28;21770;-67
2022/10/15 04:31:16;;;;;;;6.97;4.15;;;;;;;;;;5003611;28;20038;-67
2022/10/15 04:33:42;;;;;;;9.27;4.15;;;;;;;;;;5003911;28;20058;-67
2022/10/15 04:36:12;;;;;;;8.90;4.00;;;;;;;;;;5005682;28;20049;-68
2022/10/15 04:38:38;;;;;;;10.30;4.00;;;;;;;;;;5002579;28;20140;-68
2022/10/15 04:41:06;;;;;;;8.85;4.15;;;;;;;;;;5000072;28;20213;-67
2022/10/15 04:43:33;;;;;;;9.40;3.78;;;;;;;;;;5008140;28;20058;-67
2022/10/15 04:46:00;;;;;;;7.38;3.70;;;;;;;;;;5008220;28;20061;-69
2022/10/15 04:48:30;;;;;;;11.70;3.80;;;;;;;;;;5008245;28;20053;-68
2022/10/15 04:51:13;;;;;;;7.43;3.75;;;;;;;;;;4996295;28;20043;-68
2022/10/15 04:53:39;;;;;;;7.15;3.90;;;;;;;;;;4994024;28;20502;-68
2022/10/15 04:56:09;;;;;;;5.53;3.42;;;;;;;;;;5007792;28;20053;-67
2022/10/15 04:58:35;;;;;;;7.57;3.97;;;;;;;;;;5004754;28;20579;-68
2022/10/15 05:01:06;;;;;;;7.30;3.60;;;;;;;;;;5007358;28;20120;-66
2022/10/15 05:03:33;;;;;;;11.35;4.30;;;;;;;;;;5005728;28;20470;-68
2022/10/15 05:06:19;;;;;;;8.75;3.85;;;;;;;;;;5010629;28;20042;-68
2022/10/15 05:08:47;;;;;;;8.85;4.45;;;;;;;;;;4999154;28;20078;-67
2022/10/15 05:11:16;;;;;;;7.45;4.18;;;;;;;;;;5004985;28;20187;-68
2022/10/15 05:13:42;;;;;;;8.82;4.50;;;;;;;;;;5007071;28;20072;-68
2022/10/15 05:16:16;;;;;;;7.68;4.13;;;;;;;;;;5009870;28;20054;-67
2022/10/15 05:18:43;;;;;;;9.88;4.15;;;;;;;;;;5007718;28;20045;-69
2022/10/15 05:21:09;;;;;;;15.70;4.28;;;;;;;;;;5006283;28;20120;-68
2022/10/15 05:23:36;;;;;;;7.70;4.13;;;;;;;;;;5011728;28;20444;-68
2022/10/15 05:26:05;;;;;;;16.88;4.03;;;;;;;;;;5008548;28;20507;-68
2022/10/15 05:28:32;;;;;;;11.10;4.07;;;;;;;;;;5010478;28;20057;-68
2022/10/15 05:31:09;;;;;;;6.18;3.88;;;;;;;;;;5008005;28;20044;-69
2022/10/15 05:33:36;;;;;;;12.07;3.97;;;;;;;;;;5011143;28;20046;-67
2022/10/15 05:36:16;;;;;;;7.65;3.97;;;;;;;;;;5008116;28;20045;-68
2022/10/15 05:38:44;;;;;;;11.57;4.03;;;;;;;;;;5003877;28;20041;-69
2022/10/15 05:41:10;;;;;;;7.80;4.18;;;;;;;;;;4997307;28;20042;-69
2022/10/15 05:43:36;;;;;;;9.88;4.80;;;;;;;;;;5006007;28;20053;-69
2022/10/15 05:46:02;;;;;;;11.10;4.70;;;;;;;;;;5009885;28;20045;-68
2022/10/15 05:48:28;;;;;;;14.05;5.13;;;;;;;;;;5008449;28;20037;-68
2022/10/15 05:51:01;;;;;;;13.98;5.38;;;;;;;;;;5009072;28;20042;-71
2022/10/15 05:53:27;;;;;;;17.52;6.03;;;;;;;;;;4997410;28;20413;-67
2022/10/15 05:55:53;;;;;;;8.45;5.45;;;;;;;;;;5003366;28;20104;-67
2022/10/15 05:58:19;;;;;;;16.80;5.72;;;;;;;;;;5006937;28;20042;-68
2022/10/15 06:00:51;;;;;;;12.43;5.68;;;;;;;;;;5008569;28;20050;-68
2022/10/15 06:03:17;;;;;;;12.88;5.80;;;;;;;;;;5002870;28;20050;-70
2022/10/15 06:05:43;;;;;;;25.00;6.80;;;;;;;;;;5011175;28;20053;-69
2022/10/15 06:08:09;;;;;;;20.33;6.10;;;;;;;;;;5006141;28;20081;-68
2022/10/15 06:10:36;;;;;;;10.55;6.13;;;;;;;;;;5011873;28;20504;-68
2022/10/15 06:13:03;;;;;;;11.80;5.95;;;;;;;;;;5007787;28;20480;-67
2022/10/15 06:15:29;;;;;;;16.48;6.32;;;;;;;;;;5010048;28;20084;-67
2022/10/15 06:17:55;;;;;;;14.43;6.00;;;;;;;;;;5002174;28;20069;-66
2022/10/15 06:20:21;;;;;;;20.08;6.55;;;;;;;;;;5009384;28;20046;-69
2022/10/15 06:22:47;;;;;;;12.23;6.50;;;;;;;;;;5009571;28;20064;-69
2022/10/15 06:25:13;;;;;;;7.82;5.03;;;;;;;;;;5011048;28;20046;-68
2022/10/15 06:27:38;;;;;;;15.18;6.18;;;;;;;;;;5005476;28;20045;-68
2022/10/15 06:30:05;;;;;;;11.15;5.97;;;;;;;;;;4995655;28;20050;-69
2022/10/15 06:32:30;;;;;;;10.73;5.53;;;;;;;;;;4999194;28;20042;-66
2022/10/15 06:34:57;;;;;;;13.82;5.63;;;;;;;;;;4997141;28;20487;-70
2022/10/15 06:37:22;;;;;;;10.63;6.50;;;;;;;;;;4990943;28;20085;-67
2022/10/15 06:39:48;;;;;;;17.10;6.68;;;;;;;;;;4992709;28;20612;-68
2022/10/15 06:42:14;;;;;;;9.68;4.95;;;;;;;;;;4995098;28;20064;-68
2022/10/15 06:44:40;;;;;;;16.20;5.40;;;;;;;;;;4992676;28;20132;-70
2022/10/15 06:47:06;;;;;;;17.05;5.05;;;;;;;;;;4990588;28;20183;-68
2022/10/15 06:49:32;;;;;;;17.75;5.22;;;;;;;;;;4998416;28;20050;-67
2022/10/15 06:51:58;;;;;;;12.02;5.00;;;;;;;;;;4999683;28;20053;-67
2022/10/15 06:54:24;;;;;;;11.05;5.40;;;;;;;;;;4990041;28;20404;-68
2022/10/15 06:56:50;;;;;;;14.02;5.75;;;;;;;;;;4992122;28;20057;-69
2022/10/15 06:59:16;;;;;;;7.32;4.43;;;;;;;;;;4992668;28;20069;-68
2022/10/15 07:01:41;;;;;;;8.73;4.93;;;;;;;;;;4991445;28;20058;-68
2022/10/15 07:04:07;;;;;;;10.48;5.10;;;;;;;;;;4995077;28;20050;-68
2022/10/15 07:06:36;;;;;;;16.83;5.10;;;;;;;;;;4992939;28;20050;-68
2022/10/15 07:09:04;;;;;;;9.32;5.40;;;;;;;;;;4995439;28;20065;-69
2022/10/15 07:11:30;;;;;;;18.60;5.13;;;;;;;;;;4994919;28;20050;-68
2022/10/15 07:13:57;;;;;;;15.80;5.53;;;;;;;;;;4992277;28;20042;-68
2022/10/15 07:16:23;;;;;;;12.35;5.53;;;;;;;;;;4993710;28;20054;-69
2022/10/15 07:18:49;;;;;;;23.75;5.45;;;;;;;;;;4994408;28;20387;-71
2022/10/15 07:21:15;;;;;;;8.18;5.57;;;;;;;;;;4996300;28;20050;-69
2022/10/15 07:23:40;;;;;;;11.65;5.72;;;;;;;;;;4996381;28;20046;-68
2022/10/15 07:26:06;;;;;;;11.23;5.70;;;;;;;;;;4999504;28;20050;-70
2022/10/15 07:28:32;;;;;;;14.60;6.35;;;;;;;;;;4990662;28;20061;-70
2022/10/15 07:31:04;;;;;;;9.40;5.50;;;;;;;;;;4991829;28;20038;-68
2022/10/15 07:33:33;;;;;;;19.10;5.70;;;;;;;;;;4995190;28;20096;-69
2022/10/15 07:36:06;;;;;;;16.80;5.80;;;;;;;;;;4991370;28;20084;-68
2022/10/15 07:38:32;;;;;;;11.75;6.65;;;;;;;;;;4989648;28;20093;-71
2022/10/15 07:40:59;;;;;;;15.43;5.93;;;;;;;;;;4998131;28;20042;-70
2022/10/15 07:43:25;;;;;;;14.65;6.40;;;;;;;;;;4995393;28;20072;-69
2022/10/15 07:45:51;;;;;;;11.00;6.05;;;;;;;;;;4994297;28;20252;-71
2022/10/15 07:48:16;;;;;;;17.10;7.30;;;;;;;;;;4998347;28;20056;-68
2022/10/15 07:50:42;;;;;;;16.02;6.35;;;;;;;;;;4993688;28;20060;-70
2022/10/15 07:53:08;;;;;;;12.57;6.28;;;;;;;;;;4991414;28;20505;-75
2022/10/15 07:55:34;;;;;;;14.10;6.07;;;;;;;;;;4993040;28;20050;-68
2022/10/15 07:58:00;;;;;;;13.68;6.30;;;;;;;;;;4990044;28;20054;-69
2022/10/15 08:00:26;;;;;;;14.07;6.70;;;;;;;;;;4988178;28;20471;-71
2022/10/15 08:02:52;;;;;;;17.10;6.38;;;;;;;;;;4989751;28;20066;-69
2022/10/15 08:05:18;;;;;;;17.40;6.78;;;;;;;;;;4991134;28;20058;-70
2022/10/15 08:07:44;;;;;;;9.95;6.13;;;;;;;;;;4990492;28;20093;-69
2022/10/15 08:10:12;;;;;;;14.48;6.22;;;;;;;;;;4990536;28;20542;-67
2022/10/15 08:12:38;;;;;;;14.25;7.10;;;;;;;;;;4992090;28;20054;-67
2022/10/15 08:15:04;;;;;;;15.10;6.32;;;;;;;;;;4991275;28;20050;-70
2022/10/15 08:17:31;;;;;;;9.25;5.93;;;;;;;;;;4990348;28;20065;-71
2022/10/15 08:19:57;;;;;;;11.30;6.25;;;;;;;;;;4993868;28;20066;-70
2022/10/15 08:22:23;;;;;;;14.57;6.68;;;;;;;;;;4989663;28;20061;-71
2022/10/15 08:24:49;;;;;;;12.57;6.35;;;;;;;;;;4992176;28;20200;-73
2022/10/15 08:27:15;;;;;;;13.93;6.85;;;;;;;;;;4987929;28;20100;-69
2022/10/15 08:29:41;;;;;;;10.88;6.47;;;;;;;;;;4992275;28;20054;-68
2022/10/15 08:32:07;;;;;;;15.75;6.65;;;;;;;;;;4994018;28;20042;-69
2022/10/15 08:34:32;;;;;;;12.95;6.30;;;;;;;;;;4991979;28;20054;-68
2022/10/15 08:36:59;;;;;;;10.40;6.47;;;;;;;;;;4993007;28;20121;-70
2022/10/15 08:39:25;;;;;;;15.90;6.78;;;;;;;;;;4991302;28;20061;-69
2022/10/15 08:41:54;;;;;;;13.50;7.03;;;;;;;;;;4993899;28;20072;-68
2022/10/15 08:44:37;;;;;;;17.95;7.00;;;;;;;;;;4992925;28;20054;-67
2022/10/15 08:47:15;;;;;;;14.50;6.60;;;;;;;;;;4997042;28;20057;-67
2022/10/15 08:49:47;;;;;;;13.57;6.45;;;;;;;;;;4990873;28;20492;-67
2022/10/15 08:52:24;;;;;;;11.93;6.03;;;;;;;;;;4997359;28;20362;-67
2022/10/15 08:54:50;;;;;;;9.10;6.18;;;;;;;;;;4995879;28;20050;-71
2022/10/15 08:57:23;;;;;;;13.32;5.63;;;;;;;;;;4993817;28;20057;-69
2022/10/15 08:59:54;;;;;;;12.38;6.13;;;;;;;;;;4990573;28;20075;-70
2022/10/15 09:02:25;;;;;;;18.25;6.88;;;;;;;;;;4993377;28;20050;-68
2022/10/15 09:05:00;;;;;;;14.35;6.05;;;;;;;;;;4989777;28;20057;-70
2022/10/15 09:07:46;;;;;;;14.95;6.28;;;;;;;;;;4995723;28;20057;-68
2022/10/15 09:10:23;;;;;;;20.42;13.23;;;;;;;;;;4995114;28;20096;-71
2022/10/15 09:12:58;;;;;;;14.52;7.35;;;;;;;;;;4990134;28;20058;-72
2022/10/15 09:15:27;;;;;;;11.07;6.13;;;;;;;;;;4992539;28;20069;-70
2022/10/15 09:17:54;;;;;;;12.32;6.28;;;;;;;;;;4990385;28;20065;-69
2022/10/15 09:20:30;;;;;;;12.68;5.60;;;;;;;;;;4991511;28;20057;-70
2022/10/15 09:22:56;;;;;;;14.55;6.30;;;;;;;;;;4994952;28;20468;-70
2022/10/15 09:25:23;;;;;;;12.63;5.88;;;;;;;;;;4987939;28;20168;-70
2022/10/15 09:27:51;;;;;;;13.10;6.38;;;;;;;;;;4988859;28;20567;-69
2022/10/15 09:30:42;;;;;;;11.63;6.13;;;;;;;;;;4993859;28;20059;-69
2022/10/15 09:33:21;;;;;;;16.05;6.55;;;;;;;;;;4994120;28;20051;-69
2022/10/15 09:35:54;;;;;;;13.52;5.72;;;;;;;;;;4998338;28;20049;-72
2022/10/15 09:38:34;;;;;;;17.25;5.90;;;;;;;;;;4997406;28;20453;-71
2022/10/15 09:41:18;;;;;;;8.52;5.75;;;;;;;;;;5002092;28;20507;-71
2022/10/15 09:43:46;;;;;;;;;;;;;;;;;;5003026;28;20108;-69
2022/10/15 09:46:12;;;;;;;9.32;5.70;;;;;;;;;;5006138;28;19927;-69
2022/10/15 09:49:01;;;;;;;11.40;6.15;;;;;;;;;;5000714;28;20289;-68
2022/10/15 09:51:48;;;;;;;13.45;5.82;;;;;;;;;;5008028;28;20077;-71
2022/10/15 09:54:17;;;;;;;10.27;5.88;;;;;;;;;;5010430;28;20406;-69
2022/10/15 09:56:51;;;;;;;13.80;5.53;;;;;;;;;;5005754;28;20081;-70
2022/10/15 09:59:20;;;;;;;19.13;5.68;;;;;;;;;;5006718;28;20488;-70
2022/10/15 10:02:04;;;;;;;8.73;5.45;;;;;;;;;;4999325;28;20061;-70
2022/10/15 10:04:33;;;;;;;11.98;5.22;;;;;;;;;;5006407;28;20060;-70
2022/10/15 10:07:02;;;;;;;15.63;5.40;;;;;;;;;;5008061;28;20049;-71
2022/10/15 10:09:30;;;;;;;11.80;4.80;;;;;;;;;;5009042;28;20038;-71
2022/10/15 10:12:02;;;;;;;10.38;4.80;;;;;;;;;;5011365;28;20042;-70
2022/10/15 10:14:32;;;;;;;15.60;4.85;;;;;;;;;;5005574;28;20052;-70
2022/10/15 10:17:12;;;;;;;9.02;4.85;;;;;;;;;;5009062;28;20141;-71
2022/10/15 10:19:38;;;;;;;12.27;5.80;;;;;;;;;;5001644;28;20072;-72
2022/10/15 10:22:16;;;;;;;12.25;5.50;;;;;;;;;;5005324;28;20416;-69
2022/10/15 10:24:44;;;;;;;13.20;5.22;;;;;;;;;;5008603;28;20046;-70
2022/10/15 10:27:17;;;;;;;15.95;5.60;;;;;;;;;;5009177;28;20045;-70
2022/10/15 10:29:50;;;;;;;9.13;4.75;;;;;;;;;;4999365;28;20147;-70
2022/10/15 10:32:25;;;;;;;13.98;5.97;;;;;;;;;;5003667;28;20070;-71
2022/10/15 10:34:52;;;;;;;10.07;5.28;;;;;;;;;;5006954;28;20049;-72
2022/10/15 10:37:18;;;;;;;14.30;6.50;;;;;;;;;;5008475;28;20041;-72
2022/10/15 10:39:44;;;;;;;15.50;7.07;;;;;;;;;;5009572;28;20050;-70
2022/10/15 10:42:17;;;;;;;16.35;7.25;;;;;;;;;;5007822;28;20046;-73
2022/10/15 10:44:46;;;;;;;14.07;7.32;;;;;;;;;;5006056;28;20050;-68
2022/10/15 10:47:18;;;;;;;17.45;6.93;;;;;;;;;;5005482;28;20037;-70
2022/10/15 10:49:57;;;;;;;18.10;7.35;;;;;;;;;;5008197;28;20042;-69
2022/10/15 10:52:35;;;;;;;14.05;7.00;;;;;;;;;;5005363;28;20530;-67
2022/10/15 10:55:03;;;;;;;12.88;6.45;;;;;;;;;;4999747;28;20384;-69
2022/10/15 10:57:44;;;;;;;18.55;6.22;;;;;;;;;;5002481;28;20038;-70
2022/10/15 11:00:19;;;;;;;12.77;6.00;;;;;;;;;;5005719;28;20048;-67
2022/10/15 11:02:45;;;;;;;12.38;7.10;;;;;;;;;;5003255;28;20100;-69
2022/10/15 11:05:11;;;;;;;10.75;5.32;;;;;;;;;;5000177;28;20057;-72
2022/10/15 11:07:50;;;;;;;12.20;6.40;;;;;;;;;;5010405;28;20034;-78
2022/10/15 11:10:29;;;;;;;12.05;6.00;;;;;;;;;;5001933;28;20084;-73
2022/10/15 11:13:04;;;;;;;13.32;5.95;;;;;;;;;;5010858;28;20073;-74
2022/10/15 11:15:36;;;;;;;12.35;6.28;;;;;;;;;;5006313;28;20053;-74
2022/10/15 11:18:27;;;;;;;14.52;6.53;;;;;;;;;;5011378;28;20073;-74
2022/10/15 11:21:17;;;;;;;10.38;5.55;;;;;;;;;;5011540;28;20061;-73
2022/10/15 11:24:03;;;;;;;9.63;5.78;;;;;;;;;;5010818;28;20038;-74
2022/10/15 11:26:47;;;;;;;11.43;5.03;;;;;;;;;;5005034;28;20423;-71
2022/10/15 11:29:55;;;;;;;10.75;5.18;;;;;;;;;;5007013;28;20058;-70
2022/10/15 11:32:47;;;;;;;12.60;5.30;;;;;;;;;;5024199;28;20112;-68
2022/10/15 11:35:45;;;;;;;10.50;4.60;;;;;;;;;;5002908;28;20454;-68
2022/10/15 11:38:22;;;;;;;7.45;4.05;;;;;;;;;;4995433;28;20046;-71
2022/10/15 11:41:09;;;;;;;9.02;4.07;;;;;;;;;;5010483;28;20042;-73
2022/10/15 11:44:08;;;;;;;7.93;4.03;;;;;;;;;;5008941;28;20096;-71
2022/10/15 11:47:05;;;;;;;12.13;4.18;;;;;;;;;;5001490;28;20538;-73
2022/10/15 11:49:40;;;;;;;10.35;4.05;;;;;;;;;;5001073;28;20056;-71
2022/10/15 11:52:11;;;;;;;11.98;4.00;;;;;;;;;;5002136;28;20037;-70
2022/10/15 11:55:06;;;;;;;10.25;4.45;;;;;;;;;;5002593;28;20077;-72
2022/10/15 11:57:33;;;;;;;;;;;;;;;;;;5010500;28;20065;-70
2022/10/15 12:00:18;;;;;;;16.88;5.47;;;;;;;;;;5004614;28;19976;-71
2022/10/15 12:02:44;;;;;;;13.70;4.78;;;;;;;;;;4999765;28;20551;-71
2022/10/15 12:05:18;;;;;;;14.93;5.85;;;;;;;;;;5002223;28;20573;-71
2022/10/15 12:07:53;;;;;;;;;;;;;;;;;;4997184;28;20054;-71
2022/10/15 12:10:51;;;;;;;11.70;4.30;;;;;;;;;;5000946;28;20371;-72
2022/10/15 12:14:11;;;;;;;11.98;4.10;;;;;;;;;;5006263;28;20054;-71
2022/10/15 12:16:58;;;;;;;8.88;4.50;;;;;;;;;;4982289;28;20122;-72
2022/10/15 12:19:48;;;;;;;10.82;4.80;;;;;;;;;;4975385;28;20494;-72
2022/10/15 12:22:36;;;;;;;8.73;4.70;;;;;;;;;;4974692;28;20058;-73
2022/10/15 12:25:03;;;;;;;7.68;3.70;;;;;;;;;;4979164;28;20408;-71
2022/10/15 12:27:35;;;;;;;8.45;4.03;;;;;;;;;;4988452;28;20503;-76
2022/10/15 12:30:00;;;;;;;11.73;4.35;;;;;;;;;;4981449;28;20484;-71
2022/10/15 12:32:41;;;;;;;11.82;4.35;;;;;;;;;;4968581;28;20067;-73
2022/10/15 12:35:13;;;;;;;10.55;4.35;;;;;;;;;;4968012;28;20054;-75
2022/10/15 12:37:39;;;;;;;18.77;4.97;;;;;;;;;;4984144;28;20042;-70
2022/10/15 12:40:30;;;;;;;11.57;5.20;;;;;;;;;;4976785;28;20047;-69
2022/10/15 12:43:00;;;;;;;15.65;5.32;;;;;;;;;;4979116;28;20098;-71
2022/10/15 12:45:38;;;;;;;8.57;4.85;;;;;;;;;;4977409;28;20064;-70
2022/10/15 12:48:03;;;;;;;11.35;5.53;;;;;;;;;;4978571;28;20039;-71
2022/10/15 12:50:32;;;;;;;12.20;4.50;;;;;;;;;;4988764;28;20061;-70
2022/10/15 12:53:02;;;;;;;14.32;5.30;;;;;;;;;;5003866;28;20047;-70
2022/10/15 12:55:32;;;;;;;12.93;5.88;;;;;;;;;;5010368;28;20050;-72
2022/10/15 12:58:00;;;;;;;14.27;6.05;;;;;;;;;;5007384;28;20041;-70
2022/10/15 13:00:33;;;;;;;15.60;6.25;;;;;;;;;;5009255;28;20042;-71
2022/10/15 13:03:57;;;;;;;12.73;6.47;;;;;;;;;;4999398;28;20054;-69
2022/10/15 13:06:33;;;;;;;9.90;6.00;;;;;;;;;;4984452;28;20403;-71
2022/10/15 13:09:08;;;;;;;14.05;6.20;;;;;;;;;;5007248;28;20064;-71
2022/10/15 13:11:45;;;;;;;17.33;6.00;;;;;;;;;;5006015;28;20050;-71
2022/10/15 13:14:23;;;;;;;24.30;7.35;;;;;;;;;;5002999;28;20053;-72
2022/10/15 13:16:49;;;;;;;14.98;6.63;;;;;;;;;;5007307;28;20054;-71
2022/10/15 13:19:22;;;;;;;15.00;5.72;;;;;;;;;;5010578;28;20053;-72
2022/10/15 13:21:52;;;;;;;16.05;5.60;;;;;;;;;;4996860;28;20108;-73
2022/10/15 13:24:21;;;;;;;13.95;4.45;;;;;;;;;;4999129;28;20058;-72
2022/10/15 13:26:47;;;;;;;14.40;6.30;;;;;;;;;;5011236;28;20596;-73
2022/10/15 13:29:20;;;;;;;10.60;4.85;;;;;;;;;;5005440;28;20046;-72
2022/10/15 13:31:47;;;;;;;11.07;5.13;;;;;;;;;;5006592;28;20042;-69
2022/10/15 13:34:19;;;;;;;12.80;5.00;;;;;;;;;;5007469;28;20046;-70
2022/10/15 13:36:44;;;;;;;8.60;4.38;;;;;;;;;;5007332;28;20133;-71
2022/10/15 13:39:34;;;;;;;10.60;4.97;;;;;;;;;;5007563;28;20077;-72
2022/10/15 13:42:12;;;;;;;8.73;4.85;;;;;;;;;;5006704;28;20052;-71
2022/10/15 13:44:38;;;;;;;14.27;5.55;;;;;;;;;;5006575;28;20507;-67
2022/10/15 13:47:27;;;;;;;17.63;5.03;;;;;;;;;;5013208;28;20046;-70
2022/10/15 13:50:32;;;;;;;10.80;5.45;;;;;;;;;;4997217;28;20056;-69
2022/10/15 13:53:16;;;;;;;11.07;5.60;;;;;;;;;;5006191;28;20393;-74
2022/10/15 13:55:52;;;;;;;15.73;6.22;;;;;;;;;;5011551;28;20068;-69
2022/10/15 13:58:22;;;;;;;8.10;4.72;;;;;;;;;;4997668;28;20356;-69
2022/10/15 14:00:54;;;;;;;15.32;6.20;;;;;;;;;;5010433;28;20057;-69
2022/10/15 14:03:25;;;;;;;16.13;5.93;;;;;;;;;;5003865;28;20149;-68
2022/10/15 14:05:53;;;;;;;10.90;5.93;;;;;;;;;;5007918;28;20494;-68
2022/10/15 14:08:23;;;;;;;11.88;5.45;;;;;;;;;;5010724;28;20046;-68
2022/10/15 14:10:51;;;;;;;9.93;5.45;;;;;;;;;;5010796;28;20050;-68
2022/10/15 14:13:17;;;;;;;10.38;5.82;;;;;;;;;;5010361;28;20115;-69
2022/10/15 14:15:58;;;;;;;7.68;4.78;;;;;;;;;;5001014;28;20061;-68
2022/10/15 14:18:37;;;;;;;9.20;5.30;;;;;;;;;;5013188;28;20050;-71
2022/10/15 14:21:10;;;;;;;9.65;4.85;;;;;;;;;;5006113;28;20065;-68
2022/10/15 14:23:37;;;;;;;9.65;4.10;;;;;;;;;;5001838;28;20564;-68
2022/10/15 14:26:03;;;;;;;8.45;4.40;;;;;;;;;;5012142;28;20037;-70
2022/10/15 14:28:32;;;;;;;9.27;4.53;;;;;;;;;;4998515;28;20046;-68
2022/10/15 14:30:59;;;;;;;8.18;4.68;;;;;;;;;;5007547;28;20057;-69
2022/10/15 14:33:38;;;;;;;14.77;4.82;;;;;;;;;;5005254;28;20136;-69
2022/10/15 14:36:08;;;;;;;10.27;4.90;;;;;;;;;;4993914;28;20053;-68
2022/10/15 14:38:34;;;;;;;9.77;4.53;;;;;;;;;;5001778;28;20045;-69
2022/10/15 14:41:06;;;;;;;11.48;4.68;;;;;;;;;;5010486;28;20042;-69
2022/10/15 14:43:35;;;;;;;6.32;4.00;;;;;;;;;;5009699;28;20052;-68
2022/10/15 14:46:05;;;;;;;9.75;4.72;;;;;;;;;;4995992;28;20442;-70
2022/10/15 14:48:39;;;;;;;8.48;3.85;;;;;;;;;;5010071;28;20079;-70
2022/10/15 14:51:11;;;;;;;7.55;3.95;;;;;;;;;;4996534;28;20388;-69
2022/10/15 14:53:43;;;;;;;6.50;4.07;;;;;;;;;;5008978;28;20128;-70
2022/10/15 14:56:15;;;;;;;8.23;3.25;;;;;;;;;;5008413;28;20141;-68
2022/10/15 14:58:50;;;;;;;8.75;3.33;;;;;;;;;;5009475;28;20610;-69